createdAt,value
2018-05-31T00:00:49.685Z,7.57
2018-05-31T00:03:17.970Z,7.47
2018-05-31T00:05:46.264Z,6.90
2018-05-31T00:08:14.564Z,7.17
2018-05-31T00:10:42.860Z,7.97
2018-05-31T00:13:11.145Z,8.27
2018-05-31T00:15:39.554Z,6.73
2018-05-31T00:18:07.863Z,7.30
2018-05-31T00:20:37.663Z,7.30
2018-05-31T00:23:06.672Z,7.77
2018-05-31T00:25:35.369Z,6.70
2018-05-31T00:28:03.701Z,7.67
2018-05-31T00:30:32.013Z,7.10
2018-05-31T00:33:00.784Z,7.17
2018-05-31T00:35:29.821Z,6.80
2018-05-31T00:37:58.134Z,7.57
2018-05-31T00:40:27.210Z,7.53
2018-05-31T00:42:55.832Z,6.90
2018-05-31T00:45:24.585Z,7.40
2018-05-31T00:47:52.934Z,7.27
2018-05-31T00:50:21.251Z,7.00
2018-05-31T00:52:49.566Z,7.27
2018-05-31T00:58:20.621Z,6.93
2018-05-31T01:00:49.341Z,7.63
2018-05-31T01:03:17.620Z,7.17
2018-05-31T01:05:45.933Z,6.93
2018-05-31T01:08:14.245Z,7.40
2018-05-31T01:10:42.941Z,7.30
2018-05-31T01:13:11.247Z,7.47
2018-05-31T01:15:39.786Z,7.20
2018-05-31T01:18:10.155Z,7.20
2018-05-31T01:20:38.782Z,7.43
2018-05-31T01:23:07.777Z,7.87
2018-05-31T01:25:36.068Z,8.30
2018-05-31T01:28:04.758Z,7.50
2018-05-31T01:30:33.448Z,7.50
2018-05-31T01:33:01.742Z,7.33
2018-05-31T01:35:30.051Z,7.20
2018-05-31T01:38:10.205Z,7.70
2018-05-31T01:40:38.481Z,7.17
2018-05-31T01:43:06.835Z,6.93
2018-05-31T01:45:35.772Z,6.60
2018-05-31T01:48:04.065Z,7.30
2018-05-31T01:50:32.751Z,7.03
2018-05-31T01:53:01.476Z,7.20
2018-05-31T01:55:29.752Z,7.00
2018-05-31T01:57:58.081Z,7.00
2018-05-31T02:00:26.370Z,7.70
2018-05-31T02:02:55.065Z,7.33
2018-05-31T02:05:23.389Z,6.93
2018-05-31T02:07:51.679Z,7.10
2018-05-31T02:10:19.969Z,7.67
2018-05-31T02:12:48.297Z,7.70
2018-05-31T02:15:16.599Z,8.10
2018-05-31T02:17:44.881Z,8.10
2018-05-31T02:20:13.203Z,7.97
2018-05-31T02:22:41.498Z,8.47
2018-05-31T02:25:09.785Z,8.13
2018-05-31T02:27:38.107Z,8.67
2018-05-31T02:30:06.393Z,9.50
2018-05-31T02:32:35.077Z,8.90
2018-05-31T02:35:03.799Z,9.27
2018-05-31T02:37:32.090Z,9.07
2018-05-31T02:40:00.494Z,9.20
2018-05-31T02:42:28.811Z,9.30
2018-05-31T02:44:57.112Z,8.97
2018-05-31T02:47:25.409Z,9.47
2018-05-31T02:49:54.027Z,8.80
2018-05-31T02:52:22.324Z,9.33
2018-05-31T02:54:53.442Z,9.27
2018-05-31T02:57:28.356Z,9.27
2018-05-31T02:59:57.128Z,9.20
2018-05-31T03:02:26.054Z,9.50
2018-05-31T03:04:54.762Z,9.17
2018-05-31T03:07:27.513Z,9.03
2018-05-31T03:09:55.945Z,9.00
2018-05-31T03:12:24.232Z,8.70
2018-05-31T03:14:52.527Z,8.53
2018-05-31T03:17:20.851Z,8.00
2018-05-31T03:19:49.153Z,9.10
2018-05-31T03:22:17.792Z,9.07
2018-05-31T03:24:46.118Z,10.20
2018-05-31T03:27:14.405Z,9.80
2018-05-31T03:29:42.697Z,9.20
2018-05-31T03:32:11.030Z,9.43
2018-05-31T03:34:39.338Z,9.40
2018-05-31T03:37:07.638Z,9.60
2018-05-31T03:39:35.973Z,10.03
2018-05-31T03:42:04.325Z,9.77
2018-05-31T03:44:32.626Z,10.10
2018-05-31T03:47:00.961Z,9.00
2018-05-31T03:49:29.400Z,8.90
2018-05-31T03:51:57.695Z,9.30
2018-05-31T03:54:26.043Z,8.83
2018-05-31T03:56:54.683Z,10.07
2018-05-31T03:59:23.381Z,9.30
2018-05-31T04:01:52.089Z,9.47
2018-05-31T04:04:20.502Z,10.40
2018-05-31T04:06:48.783Z,8.77
2018-05-31T04:09:17.110Z,9.20
2018-05-31T04:11:45.430Z,8.83
2018-05-31T04:14:13.719Z,9.83
2018-05-31T04:16:42.033Z,10.03
2018-05-31T04:19:10.719Z,9.53
2018-05-31T04:21:39.417Z,9.10
2018-05-31T04:24:07.850Z,10.47
2018-05-31T04:26:36.137Z,10.00
2018-05-31T04:29:04.731Z,9.13
2018-05-31T04:31:33.446Z,11.17
2018-05-31T04:34:01.734Z,9.23
2018-05-31T04:36:30.038Z,11.03
2018-05-31T04:38:58.349Z,10.20
2018-05-31T04:41:26.644Z,10.50
2018-05-31T04:43:54.986Z,11.23
2018-05-31T04:46:23.279Z,11.23
2018-05-31T04:48:51.961Z,10.63
2018-05-31T04:51:20.308Z,9.90
2018-05-31T04:53:48.606Z,11.00
2018-05-31T04:56:16.905Z,11.33
2018-05-31T04:58:45.243Z,11.23
2018-05-31T05:01:13.545Z,11.17
2018-05-31T05:03:41.837Z,10.63
2018-05-31T05:06:10.550Z,10.37
2018-05-31T05:08:38.841Z,11.10
2018-05-31T05:11:07.247Z,10.93
2018-05-31T05:13:35.990Z,10.30
2018-05-31T05:16:04.300Z,10.30
2018-05-31T05:18:32.632Z,10.97
2018-05-31T05:21:00.929Z,11.40
2018-05-31T05:23:29.238Z,11.77
2018-05-31T05:26:03.771Z,10.90
2018-05-31T05:28:32.270Z,10.93
2018-05-31T05:31:00.967Z,11.67
2018-05-31T05:33:29.677Z,11.60
2018-05-31T05:35:58.214Z,11.63
2018-05-31T05:38:26.522Z,11.37
2018-05-31T05:40:54.821Z,11.30
2018-05-31T05:43:23.117Z,11.20
2018-05-31T05:45:51.468Z,11.37
2018-05-31T05:48:19.885Z,11.33
2018-05-31T05:50:48.172Z,9.93
2018-05-31T05:53:16.509Z,12.33
2018-05-31T05:55:44.823Z,12.43
2018-05-31T05:58:13.129Z,12.17
2018-05-31T06:00:41.855Z,12.40
2018-05-31T06:03:10.161Z,12.03
2018-05-31T06:05:38.505Z,12.80
2018-05-31T06:08:06.811Z,11.80
2018-05-31T06:10:35.537Z,11.87
2018-05-31T06:13:04.201Z,12.70
2018-05-31T06:15:32.612Z,11.70
2018-05-31T06:18:00.862Z,11.33
2018-05-31T06:20:29.579Z,12.30
2018-05-31T06:22:57.904Z,11.50
2018-05-31T06:25:26.245Z,11.40
2018-05-31T06:27:54.550Z,11.50
2018-05-31T06:30:23.083Z,11.20
2018-05-31T06:32:51.411Z,10.67
2018-05-31T06:35:19.725Z,11.40
2018-05-31T06:37:48.013Z,11.97
2018-05-31T06:40:16.431Z,11.47
2018-05-31T06:42:44.839Z,12.23
2018-05-31T06:45:13.122Z,11.40
2018-05-31T06:47:41.446Z,11.20
2018-05-31T06:50:09.773Z,10.57
2018-05-31T06:52:38.496Z,10.73
2018-05-31T06:55:07.039Z,9.87
2018-05-31T06:57:35.319Z,9.67
2018-05-31T07:00:03.611Z,10.37
2018-05-31T07:02:32.599Z,9.93
2018-05-31T07:05:02.147Z,10.13
2018-05-31T07:07:32.171Z,8.83
2018-05-31T07:10:01.084Z,8.97
2018-05-31T07:12:29.464Z,8.77
2018-05-31T07:14:57.747Z,8.60
2018-05-31T07:17:26.050Z,7.90
2018-05-31T07:19:54.766Z,8.80
2018-05-31T07:22:23.402Z,7.70
2018-05-31T07:24:51.769Z,8.30
2018-05-31T07:27:20.074Z,7.83
2018-05-31T07:29:48.761Z,8.10
2018-05-31T07:32:17.741Z,8.43
2018-05-31T07:34:46.061Z,7.23
2018-05-31T07:37:14.984Z,7.60
2018-05-31T07:39:43.269Z,7.50
2018-05-31T07:42:11.866Z,7.10
2018-05-31T07:44:40.153Z,6.40
2018-05-31T07:47:08.463Z,6.17
2018-05-31T07:49:36.773Z,6.23
2018-05-31T07:52:05.376Z,6.10
2018-05-31T07:54:33.687Z,5.80
2018-05-31T07:57:02.426Z,6.17
2018-05-31T07:59:30.725Z,5.90
2018-05-31T08:01:59.027Z,5.53
2018-05-31T08:04:27.358Z,5.53
2018-05-31T08:06:55.642Z,5.90
2018-05-31T08:09:24.231Z,5.33
2018-05-31T08:11:52.518Z,5.30
2018-05-31T08:14:20.802Z,6.17
2018-05-31T08:16:49.122Z,5.70
2018-05-31T08:19:17.402Z,5.60
2018-05-31T08:21:45.681Z,6.30
2018-05-31T08:24:13.981Z,6.30
2018-05-31T08:26:42.277Z,6.23
2018-05-31T08:29:10.621Z,5.73
2018-05-31T08:31:39.112Z,5.77
2018-05-31T08:34:07.301Z,5.73
2018-05-31T08:36:35.662Z,6.47
2018-05-31T08:39:03.961Z,5.90
2018-05-31T08:41:32.239Z,6.93
2018-05-31T08:44:00.616Z,6.27
2018-05-31T08:46:28.897Z,6.03
2018-05-31T08:48:57.248Z,7.10
2018-05-31T08:51:25.627Z,7.00
2018-05-31T08:53:53.913Z,6.33
2018-05-31T08:56:22.221Z,6.10
2018-05-31T08:58:50.897Z,6.80
2018-05-31T09:01:19.873Z,7.13
2018-05-31T09:03:48.184Z,6.60
2018-05-31T09:06:16.898Z,6.83
2018-05-31T09:08:45.207Z,7.17
2018-05-31T09:11:13.489Z,6.63
2018-05-31T09:13:41.767Z,6.20
2018-05-31T09:16:10.095Z,6.80
2018-05-31T09:18:38.370Z,6.90
2018-05-31T09:21:06.655Z,7.47
2018-05-31T09:23:34.947Z,6.43
2018-05-31T09:26:03.223Z,6.93
2018-05-31T09:28:31.573Z,6.60
2018-05-31T09:31:00.296Z,6.90
2018-05-31T09:33:28.586Z,6.30
2018-05-31T09:35:57.177Z,7.30
2018-05-31T09:38:25.488Z,7.10
2018-05-31T09:40:53.809Z,7.40
2018-05-31T09:43:22.187Z,7.27
2018-05-31T09:45:50.497Z,7.80
2018-05-31T09:48:19.470Z,6.73
2018-05-31T09:50:47.843Z,7.30
2018-05-31T09:53:16.212Z,7.50
2018-05-31T09:55:44.504Z,7.33
2018-05-31T09:58:12.881Z,7.33
2018-05-31T10:00:41.165Z,7.20
2018-05-31T10:03:09.444Z,7.57
2018-05-31T10:05:38.208Z,7.00
2018-05-31T10:08:06.482Z,6.60
2018-05-31T10:10:35.041Z,6.93
2018-05-31T10:13:03.335Z,6.53
2018-05-31T10:15:31.618Z,7.00
2018-05-31T10:18:00.203Z,6.47
2018-05-31T10:20:28.583Z,6.50
2018-05-31T10:22:56.964Z,6.33
2018-05-31T10:25:25.278Z,6.77
2018-05-31T10:27:54.007Z,6.93
2018-05-31T10:30:22.301Z,6.27
2018-05-31T10:32:50.676Z,6.10
2018-05-31T10:35:18.993Z,6.33
2018-05-31T10:37:47.281Z,6.03
2018-05-31T10:40:15.632Z,6.33
2018-05-31T10:42:43.994Z,5.60
2018-05-31T10:45:12.586Z,6.20
2018-05-31T10:47:40.999Z,6.13
2018-05-31T10:50:09.746Z,5.70
2018-05-31T10:52:38.073Z,5.80
2018-05-31T10:55:06.384Z,6.10
2018-05-31T10:57:34.695Z,6.27
2018-05-31T11:00:03.037Z,6.10
2018-05-31T11:02:31.380Z,5.60
2018-05-31T11:04:59.676Z,5.40
2018-05-31T11:07:27.981Z,5.20
2018-05-31T11:09:56.268Z,5.43
2018-05-31T11:12:24.637Z,6.03
2018-05-31T11:14:52.990Z,5.53
2018-05-31T11:17:21.356Z,5.63
2018-05-31T11:19:50.138Z,5.77
2018-05-31T11:22:18.494Z,5.63
2018-05-31T11:24:47.090Z,5.97
2018-05-31T11:27:15.921Z,5.57
2018-05-31T11:29:45.154Z,5.47
2018-05-31T11:32:13.427Z,5.37
2018-05-31T11:34:41.779Z,5.87
2018-05-31T11:37:10.536Z,5.30
2018-05-31T11:39:38.849Z,4.90
2018-05-31T11:42:07.149Z,5.37
2018-05-31T11:44:35.457Z,5.60
2018-05-31T11:47:03.751Z,5.00
2018-05-31T11:49:32.037Z,5.30
2018-05-31T11:52:00.330Z,4.80
2018-05-31T11:54:28.603Z,5.10
2018-05-31T11:56:56.874Z,5.10
2018-05-31T11:59:25.526Z,5.50
2018-05-31T12:01:54.062Z,5.53
2018-05-31T12:04:22.648Z,5.70
2018-05-31T12:06:50.943Z,5.50
2018-05-31T12:09:19.257Z,5.30
2018-05-31T12:11:47.640Z,5.00
2018-05-31T12:14:15.936Z,5.40
2018-05-31T12:16:44.223Z,5.30
2018-05-31T12:19:12.517Z,4.80
2018-05-31T12:21:40.804Z,5.50
2018-05-31T12:24:09.490Z,6.00
2018-05-31T12:26:38.223Z,5.80
2018-05-31T12:29:06.537Z,6.20
2018-05-31T12:31:35.045Z,6.23
2018-05-31T12:34:03.781Z,6.80
2018-05-31T12:36:32.383Z,6.43
2018-05-31T12:39:00.743Z,6.43
2018-05-31T12:41:29.121Z,5.90
2018-05-31T12:43:57.725Z,6.50
2018-05-31T12:46:26.301Z,6.20
2018-05-31T12:48:54.603Z,6.07
2018-05-31T12:51:22.886Z,6.33
2018-05-31T12:53:51.578Z,6.20
2018-05-31T12:56:20.138Z,6.27
2018-05-31T12:58:48.416Z,6.10
2018-05-31T13:01:16.765Z,6.50
2018-05-31T13:03:45.078Z,6.47
2018-05-31T13:06:13.753Z,6.40
2018-05-31T13:08:42.309Z,6.70
2018-05-31T13:11:11.367Z,6.93
2018-05-31T13:13:39.804Z,7.37
2018-05-31T13:16:08.845Z,8.00
2018-05-31T13:18:37.141Z,7.67
2018-05-31T13:21:05.427Z,8.17
2018-05-31T13:23:33.797Z,7.30
2018-05-31T13:26:02.197Z,7.30
2018-05-31T13:28:30.487Z,7.13
2018-05-31T13:30:58.796Z,7.40
2018-05-31T13:33:27.129Z,7.53
2018-05-31T13:35:55.605Z,7.10
2018-05-31T13:38:23.922Z,7.40
2018-05-31T13:40:52.237Z,7.40
2018-05-31T13:43:20.519Z,7.00
2018-05-31T13:45:48.831Z,6.80
2018-05-31T13:48:17.113Z,6.47
2018-05-31T13:50:45.807Z,6.67
2018-05-31T13:53:14.374Z,7.37
2018-05-31T13:55:43.058Z,6.63
2018-05-31T13:58:11.749Z,7.30
2018-05-31T14:00:40.058Z,6.70
2018-05-31T14:03:08.715Z,7.23
2018-05-31T14:05:36.997Z,7.33
2018-05-31T14:08:05.699Z,7.10
2018-05-31T14:10:33.999Z,7.30
2018-05-31T14:13:02.403Z,7.07
2018-05-31T14:15:30.748Z,7.13
2018-05-31T14:17:59.048Z,7.50
2018-05-31T14:20:27.338Z,7.20
2018-05-31T14:22:55.657Z,7.53
2018-05-31T14:25:25.233Z,7.30
2018-05-31T14:27:53.634Z,7.30
2018-05-31T14:30:21.989Z,7.30
2018-05-31T14:32:50.275Z,7.10
2018-05-31T14:35:19.257Z,7.23
2018-05-31T14:37:47.554Z,7.53
2018-05-31T14:40:16.225Z,8.10
2018-05-31T14:42:44.986Z,7.23
2018-05-31T14:45:13.288Z,7.20
2018-05-31T14:47:41.867Z,7.00
2018-05-31T14:50:10.219Z,7.20
2018-05-31T14:52:38.825Z,7.00
2018-05-31T14:55:07.132Z,7.30
2018-05-31T14:57:35.836Z,7.57
2018-05-31T15:00:04.144Z,7.90
2018-05-31T15:02:32.458Z,7.50
2018-05-31T15:05:00.748Z,7.10
2018-05-31T15:07:29.055Z,7.23
2018-05-31T15:09:57.364Z,7.30
2018-05-31T15:12:26.109Z,7.70
2018-05-31T15:14:54.629Z,7.77
2018-05-31T15:17:22.933Z,7.57
2018-05-31T15:19:51.201Z,6.90
2018-05-31T15:22:19.477Z,7.30
2018-05-31T15:24:47.821Z,6.93
2018-05-31T15:27:16.212Z,7.77
2018-05-31T15:29:44.619Z,7.10
2018-05-31T15:32:12.970Z,7.63
2018-05-31T15:34:41.250Z,7.50
2018-05-31T15:37:09.724Z,7.23
2018-05-31T15:39:38.239Z,7.30
2018-05-31T15:42:06.583Z,7.50
2018-05-31T15:44:34.867Z,8.03
2018-05-31T15:47:03.171Z,8.10
2018-05-31T15:49:31.446Z,8.30
2018-05-31T15:52:00.421Z,7.57
2018-05-31T15:54:28.887Z,8.30
2018-05-31T15:56:57.265Z,8.23
2018-05-31T15:59:25.875Z,8.50
2018-05-31T16:01:54.159Z,8.80
2018-05-31T16:04:22.527Z,8.60
2018-05-31T16:06:51.046Z,8.10
2018-05-31T16:09:19.584Z,8.30
2018-05-31T16:11:48.350Z,9.37
2018-05-31T16:14:16.634Z,8.70
2018-05-31T16:16:45.012Z,8.30
2018-05-31T16:19:13.310Z,9.53
2018-05-31T16:21:41.606Z,10.00
2018-05-31T16:24:10.303Z,10.10
2018-05-31T16:26:38.738Z,9.40
2018-05-31T16:29:07.517Z,10.17
2018-05-31T16:31:35.806Z,10.63
2018-05-31T16:34:04.558Z,9.73
2018-05-31T16:36:32.881Z,10.90
2018-05-31T16:39:01.580Z,10.73
2018-05-31T16:41:30.149Z,10.20
2018-05-31T16:43:58.506Z,10.33
2018-05-31T16:46:26.805Z,10.30
2018-05-31T16:48:55.522Z,9.90
2018-05-31T16:51:23.946Z,10.10
2018-05-31T16:53:52.285Z,10.00
2018-05-31T16:56:20.826Z,10.03
2018-05-31T16:58:49.133Z,10.23
2018-05-31T17:01:17.495Z,9.20
2018-05-31T17:03:46.431Z,10.47
2018-05-31T17:06:14.713Z,10.30
2018-05-31T17:08:44.254Z,10.03
2018-05-31T17:11:12.542Z,9.30
2018-05-31T17:13:40.874Z,9.13
2018-05-31T17:16:09.204Z,8.90
2018-05-31T17:18:37.881Z,9.47
2018-05-31T17:21:06.180Z,9.07
2018-05-31T17:23:34.502Z,9.60
2018-05-31T17:26:02.882Z,10.53
2018-05-31T17:28:31.183Z,8.53
2018-05-31T17:30:59.925Z,9.90
2018-05-31T17:33:28.265Z,9.30
2018-05-31T17:35:56.935Z,9.40
2018-05-31T17:38:25.266Z,9.57
2018-05-31T17:40:53.693Z,9.03
2018-05-31T17:43:22.838Z,9.20
2018-05-31T17:45:51.670Z,9.13
2018-05-31T17:48:19.970Z,9.07
2018-05-31T17:50:48.304Z,9.33
2018-05-31T17:53:16.992Z,8.40
2018-05-31T17:55:45.375Z,8.77
2018-05-31T17:58:15.211Z,7.77
2018-05-31T18:00:43.685Z,7.70
2018-05-31T18:03:12.407Z,7.40
2018-05-31T18:05:40.700Z,7.80
2018-05-31T18:08:09.037Z,7.93
2018-05-31T18:10:37.844Z,8.80
2018-05-31T18:13:06.275Z,8.20
2018-05-31T18:15:35.165Z,8.93
2018-05-31T18:18:03.744Z,8.60
2018-05-31T18:20:32.173Z,9.00
2018-05-31T18:23:00.779Z,7.93
2018-05-31T18:25:29.704Z,8.17
2018-05-31T18:27:58.451Z,8.13
2018-05-31T18:30:27.606Z,7.97
2018-05-31T18:32:57.214Z,7.57
2018-05-31T18:35:25.892Z,8.17
2018-05-31T18:37:54.436Z,8.47
2018-05-31T18:40:23.200Z,8.60
2018-05-31T18:42:51.779Z,7.70
2018-05-31T18:45:20.376Z,7.80
2018-05-31T18:47:49.049Z,7.93
2018-05-31T18:50:17.650Z,8.20
2018-05-31T18:52:46.319Z,8.20
2018-05-31T18:55:15.022Z,8.40
2018-05-31T18:57:43.407Z,8.37
2018-05-31T19:00:11.745Z,8.17
2018-05-31T19:02:40.968Z,8.27
2018-05-31T19:05:09.264Z,8.70
2018-05-31T19:07:37.991Z,7.60
2018-05-31T19:10:06.963Z,8.03
2018-05-31T19:12:41.117Z,7.53
2018-05-31T19:15:10.564Z,8.00
2018-05-31T19:17:38.959Z,7.97
2018-05-31T19:20:07.294Z,7.90
2018-05-31T19:22:36.060Z,7.53
2018-05-31T19:25:10.109Z,7.70
2018-05-31T19:27:39.338Z,7.93
2018-05-31T19:30:14.083Z,8.30
2018-05-31T19:32:42.450Z,7.80
2018-05-31T19:35:16.963Z,7.90
2018-05-31T19:37:45.263Z,8.57
2018-05-31T19:40:13.561Z,7.70
2018-05-31T19:42:47.579Z,7.63
2018-05-31T19:45:15.865Z,7.03
2018-05-31T19:47:44.482Z,8.30
2018-05-31T19:50:12.834Z,7.80
2018-05-31T19:52:46.992Z,7.40
2018-05-31T19:55:15.425Z,7.50
2018-05-31T19:57:49.507Z,7.20
2018-05-31T20:03:26.383Z,7.57
2018-05-31T20:05:55.011Z,6.87
2018-05-31T20:08:36.494Z,7.60
2018-05-31T20:11:05.275Z,8.53
2018-05-31T20:13:33.822Z,7.90
2018-05-31T20:16:02.124Z,7.97
2018-05-31T20:18:31.750Z,7.63
2018-05-31T20:21:00.071Z,7.50
2018-05-31T20:23:30.157Z,7.70
2018-05-31T20:26:01.141Z,7.17
2018-05-31T20:28:30.865Z,7.50
2018-05-31T20:31:01.326Z,7.83
2018-05-31T20:33:30.964Z,7.70
2018-05-31T20:36:00.475Z,7.90
2018-05-31T20:38:30.345Z,8.43
2018-05-31T20:40:59.512Z,8.03
2018-05-31T20:43:28.698Z,7.83
2018-05-31T20:45:57.137Z,7.80
2018-05-31T20:48:25.986Z,7.60
2018-05-31T20:50:55.038Z,7.40
2018-05-31T20:53:24.502Z,7.47
2018-05-31T20:55:53.562Z,8.20
2018-05-31T20:58:22.750Z,7.90
2018-05-31T21:00:51.835Z,7.80
2018-05-31T21:03:21.084Z,8.30
2018-05-31T21:05:50.285Z,7.93
2018-05-31T21:08:18.574Z,8.00
2018-05-31T21:10:46.863Z,7.50
2018-05-31T21:13:15.266Z,7.63
2018-05-31T21:15:43.547Z,7.80
2018-05-31T21:18:11.822Z,7.67
2018-05-31T21:20:40.261Z,8.07
2018-05-31T21:23:08.901Z,8.50
2018-05-31T21:25:37.184Z,7.73
2018-05-31T21:28:05.483Z,7.77
2018-05-31T21:30:33.793Z,7.83
2018-05-31T21:33:02.070Z,7.90
2018-05-31T21:35:30.413Z,8.13
2018-05-31T21:37:59.091Z,8.27
2018-05-31T21:40:27.771Z,8.00
2018-05-31T21:42:56.480Z,8.17
2018-05-31T21:45:24.766Z,11.77
2018-05-31T21:47:53.053Z,8.60
2018-05-31T21:50:21.361Z,9.47
2018-05-31T21:52:49.638Z,7.43
2018-05-31T21:55:17.919Z,9.00
2018-05-31T21:57:46.454Z,8.17
2018-05-31T22:00:41.166Z,8.50
2018-05-31T22:03:10.401Z,7.93
2018-05-31T22:05:38.770Z,7.40
2018-05-31T22:08:07.122Z,8.23
2018-05-31T22:10:35.430Z,7.80
2018-05-31T22:13:03.728Z,8.23
2018-05-31T22:15:32.405Z,8.20
2018-05-31T22:18:00.969Z,7.93
2018-05-31T22:20:29.248Z,7.87
2018-05-31T22:22:57.532Z,8.20
2018-05-31T22:25:25.827Z,8.40
2018-05-31T22:27:54.501Z,9.40
2018-05-31T22:30:23.069Z,9.37
2018-05-31T22:32:51.400Z,9.67
2018-05-31T22:35:19.679Z,9.23
2018-05-31T22:37:48.379Z,8.50
2018-05-31T22:40:16.822Z,8.60
2018-05-31T22:42:45.561Z,9.70
2018-05-31T22:45:13.836Z,9.97
2018-05-31T22:47:42.154Z,9.70
2018-05-31T22:50:11.128Z,13.30
2018-05-31T22:52:39.414Z,9.10
2018-05-31T22:55:08.194Z,9.87
2018-05-31T22:57:36.524Z,9.13
2018-05-31T23:00:04.823Z,9.03
2018-05-31T23:02:33.134Z,9.53
2018-05-31T23:05:01.631Z,9.70
2018-05-31T23:07:30.307Z,8.70
2018-05-31T23:09:58.626Z,9.00
2018-05-31T23:12:26.911Z,8.93
2018-05-31T23:14:55.188Z,9.43
2018-05-31T23:17:23.482Z,9.30
2018-05-31T23:19:51.754Z,10.33
2018-05-31T23:22:20.052Z,10.00
2018-05-31T23:24:48.392Z,9.90
2018-05-31T23:27:16.679Z,10.73
2018-05-31T23:29:44.969Z,9.40
2018-05-31T23:32:13.273Z,9.73
2018-05-31T23:34:41.951Z,9.33
2018-05-31T23:37:10.222Z,9.50
2018-05-31T23:39:38.513Z,9.90
2018-05-31T23:42:07.205Z,10.07
2018-05-31T23:44:35.512Z,10.07
2018-05-31T23:47:03.808Z,9.67
2018-05-31T23:49:32.170Z,9.63
2018-05-31T23:52:00.810Z,9.97
2018-05-31T23:54:29.514Z,9.90
2018-05-31T23:56:57.797Z,10.37
2018-05-31T23:59:26.165Z,9.93
